Time;durP1;ratioP1;P1;durP2;ratioP2;P2;SDS_P1;SDS_P2;PMS_P1;PMS_P2;Temp;Humidity;BMP_temperature;BMP_pressure;BME280_temperature;BME280_humidity;BME280_pressure;Samples;Min_cycle;Max_cycle;Signal;HPM_P1;HPM_P2
2022/12/29 00:01:21;;;;;;;22.20;14.45;;;20.90;90.90;;;;;;1813275;78;21130;-88
2022/12/29 00:03:52;;;;;;;19.07;13.50;;;20.90;90.80;;;;;;1830198;77;21131;-85
2022/12/29 00:06:24;;;;;;;24.43;13.45;;;20.90;90.80;;;;;;1848644;76;21109;-84
2022/12/29 00:08:57;;;;;;;30.00;16.85;;;20.90;90.80;;;;;;1846961;76;21062;-70
2022/12/29 00:11:28;;;;;;;22.40;15.83;;;20.90;90.90;;;;;;1845971;76;21109;-70
2022/12/29 00:16:50;;;;;;;25.02;15.13;;;20.90;90.90;;;;;;1848652;76;21286;-69
2022/12/29 00:36:30;;;;;;;23.45;14.53;;;21.00;91.00;;;;;;1902133;75;21509;-71
2022/12/29 00:44:42;;;;;;;23.50;14.05;;;21.10;90.80;;;;;;1898695;73;21245;-70
2022/12/29 00:47:13;;;;;;;18.67;11.00;;;21.10;90.60;;;;;;1901496;73;21046;-71
2022/12/29 00:49:47;;;;;;;19.40;11.45;;;21.20;90.40;;;;;;1904960;73;21100;-71
2022/12/29 00:52:19;;;;;;;16.37;10.38;;;21.30;90.20;;;;;;1903037;73;21168;-70
2022/12/29 00:54:54;;;;;;;17.30;9.75;;;21.30;90.10;;;;;;1902978;73;21149;-70
2022/12/29 00:57:31;;;;;;;16.17;10.13;;;21.40;89.70;;;;;;1904309;73;21067;-71
2022/12/29 00:59:58;;;;;;;18.02;11.30;;;21.50;89.70;;;;;;1900641;73;21131;-72
2022/12/29 01:02:30;;;;;;;18.23;11.48;;;21.60;89.00;;;;;;1906270;75;21069;-70
2022/12/29 01:05:02;;;;;;;12.10;9.15;;;21.70;88.30;;;;;;1892119;75;21743;-70
2022/12/29 01:07:33;;;;;;;19.10;10.20;;;21.70;88.00;;;;;;1903294;73;21730;-71
2022/12/29 01:10:10;;;;;;;18.25;10.88;;;21.80;87.80;;;;;;1902919;75;21042;-71
2022/12/29 01:12:44;;;;;;;15.65;9.75;;;21.80;87.70;;;;;;1899871;75;21063;-70
2022/12/29 01:15:16;;;;;;;15.48;9.95;;;21.80;88.10;;;;;;1916669;73;21062;-69
2022/12/29 01:17:47;;;;;;;17.12;10.75;;;21.80;87.40;;;;;;1900852;73;21192;-69
2022/12/29 01:20:19;;;;;;;14.05;10.08;;;21.90;87.30;;;;;;1908197;75;21094;-71
2022/12/29 01:22:53;;;;;;;12.63;7.87;;;21.90;87.30;;;;;;1896897;75;21141;-70
2022/12/29 01:25:24;;;;;;;17.80;11.53;;;21.90;86.60;;;;;;1901959;73;22061;-71
2022/12/29 01:27:56;;;;;;;19.85;11.20;;;21.90;86.70;;;;;;1917689;73;21155;-71
2022/12/29 01:30:28;;;;;;;16.95;10.55;;;22.00;86.70;;;;;;1921341;73;21055;-70
2022/12/29 01:32:59;;;;;;;14.28;9.30;;;22.00;86.40;;;;;;1880807;75;21152;-72
2022/12/29 01:35:30;;;;;;;14.28;8.83;;;22.00;86.50;;;;;;1917814;73;21824;-72
2022/12/29 01:38:01;;;;;;;13.48;7.47;;;22.00;86.20;;;;;;1913207;73;21666;-71
2022/12/29 01:40:32;;;;;;;11.68;7.87;;;22.00;85.80;;;;;;1920207;73;21180;-70
2022/12/29 01:43:05;;;;;;;14.98;10.32;;;22.00;85.60;;;;;;1876963;75;21148;-71
2022/12/29 01:45:37;;;;;;;12.88;9.05;;;22.10;85.70;;;;;;1919904;73;21079;-71
2022/12/29 01:48:10;;;;;;;17.85;10.05;;;22.20;85.80;;;;;;1918163;74;21121;-71
2022/12/29 01:50:45;;;;;;;12.98;8.70;;;22.20;85.70;;;;;;1922190;73;21148;-71
2022/12/29 01:53:18;;;;;;;14.95;9.23;;;22.30;85.30;;;;;;1847784;76;21115;-71
2022/12/29 01:55:52;;;;;;;14.03;8.98;;;22.30;84.60;;;;;;1918862;73;21142;-71
2022/12/29 01:58:26;;;;;;;15.85;9.80;;;22.40;84.30;;;;;;1916983;74;21610;-71
2022/12/29 02:00:59;;;;;;;16.60;9.45;;;22.40;84.30;;;;;;1918555;73;21128;-71
2022/12/29 02:03:35;;;;;;;17.20;8.98;;;22.40;84.00;;;;;;1916094;73;21190;-71
2022/12/29 02:06:11;;;;;;;15.65;10.45;;;22.50;83.50;;;;;;1914526;73;21722;-72
2022/12/29 02:08:55;;;;;;;16.67;9.38;;;22.50;83.60;;;;;;1912808;74;21171;-72
2022/12/29 02:11:29;;;;;;;13.83;9.48;;;22.50;83.40;;;;;;1916975;73;21217;-71
2022/12/29 02:14:01;;;;;;;12.20;8.73;;;22.60;83.20;;;;;;1916158;74;21163;-71
2022/12/29 02:16:47;;;;;;;13.50;9.60;;;22.60;82.70;;;;;;1918033;73;21147;-72
2022/12/29 02:19:29;;;;;;;14.75;9.55;;;22.70;82.70;;;;;;1915927;74;21226;-71
2022/12/29 02:22:05;;;;;;;12.00;8.90;;;22.70;82.60;;;;;;1916764;73;21147;-71
2022/12/29 02:24:47;;;;;;;13.60;8.85;;;22.70;82.30;;;;;;1917204;73;21078;-70
2022/12/29 02:27:33;;;;;;;14.87;9.23;;;22.80;82.20;;;;;;1915134;73;21153;-70
2022/12/29 02:30:21;;;;;;;17.87;10.43;;;22.80;81.80;;;;;;1906738;73;21080;-70
2022/12/29 02:33:00;;;;;;;14.10;9.63;;;22.80;81.80;;;;;;1905811;73;21074;-71
2022/12/29 02:35:40;;;;;;;14.15;9.98;;;22.80;82.10;;;;;;1903906;73;21148;-71
2022/12/29 02:38:16;;;;;;;14.23;9.98;;;22.90;82.10;;;;;;1902564;73;21121;-72
2022/12/29 02:40:58;;;;;;;14.95;10.48;;;22.90;81.60;;;;;;1898107;73;21532;-71
2022/12/29 02:43:50;;;;;;;15.90;10.32;;;23.00;81.50;;;;;;1901880;73;21562;-71
2022/12/29 02:46:27;;;;;;;14.80;9.90;;;23.00;81.70;;;;;;1903050;73;21141;-72
2022/12/29 02:49:04;;;;;;;19.60;10.58;;;23.00;81.80;;;;;;1904033;73;21157;-71
2022/12/29 02:51:43;;;;;;;13.03;8.83;;;23.00;81.60;;;;;;1908995;73;21150;-70
2022/12/29 02:57:06;;;;;;;14.38;10.48;;;23.10;81.60;;;;;;1908753;73;21457;-70
2022/12/29 02:59:38;;;;;;;17.52;10.53;;;23.20;81.20;;;;;;1904794;74;21117;-71
2022/12/29 03:02:17;;;;;;;12.85;9.85;;;23.20;81.00;;;;;;1864267;75;21206;-71
2022/12/29 03:05:06;;;;;;;13.60;9.95;;;23.20;80.60;;;;;;1834520;76;21137;-71
2022/12/29 03:07:48;;;;;;;16.27;10.55;;;23.30;80.50;;;;;;1865787;75;21726;-71
2022/12/29 03:10:31;;;;;;;15.32;9.83;;;23.30;80.40;;;;;;1840558;76;21065;-71
2022/12/29 03:16:32;;;;;;;14.43;10.30;;;23.40;80.10;;;;;;1906912;73;21242;-71
2022/12/29 03:19:05;;;;;;;15.95;10.55;;;23.50;80.00;;;;;;1897796;73;21432;-72
2022/12/29 03:24:29;;;;;;;12.78;8.78;;;23.60;78.90;;;;;;1903707;73;21313;-71
2022/12/29 03:27:03;;;;;;;14.05;9.68;;;23.70;79.00;;;;;;1905291;73;21158;-70
2022/12/29 03:29:41;;;;;;;13.68;9.05;;;23.80;79.00;;;;;;1915974;73;21072;-72
2022/12/29 03:32:14;;;;;;;11.38;7.90;;;23.80;78.90;;;;;;1916309;73;21103;-71
2022/12/29 03:34:47;;;;;;;11.53;8.53;;;23.90;78.20;;;;;;1915517;74;21516;-71
2022/12/29 03:37:20;;;;;;;11.63;8.25;;;23.90;77.80;;;;;;1918887;73;21162;-71
2022/12/29 03:39:51;;;;;;;13.72;8.25;;;24.00;77.30;;;;;;1911364;73;21148;-71
2022/12/29 03:42:24;;;;;;;14.03;8.95;;;24.10;77.00;;;;;;1910747;73;21160;-72
2022/12/29 03:44:57;;;;;;;11.75;9.30;;;24.20;76.90;;;;;;1912207;73;21710;-69
2022/12/29 03:47:27;;;;;;;14.30;9.58;;;24.20;76.50;;;;;;1913640;73;21125;-71
2022/12/29 03:49:59;;;;;;;18.02;9.48;;;24.30;76.20;;;;;;1911178;74;21616;-72
2022/12/29 03:52:34;;;;;;;14.45;8.85;;;24.40;75.50;;;;;;1917488;73;21191;-73
2022/12/29 03:55:05;;;;;;;13.18;8.15;;;24.40;75.10;;;;;;1914127;74;21115;-71
2022/12/29 03:57:36;;;;;;;13.35;8.48;;;24.50;74.60;;;;;;1916154;73;21149;-71
2022/12/29 04:00:11;;;;;;;13.90;8.35;;;24.60;74.30;;;;;;1875598;74;21636;-72
2022/12/29 04:02:43;;;;;;;15.03;9.25;;;24.60;74.60;;;;;;1918356;73;21151;-72
2022/12/29 04:05:15;;;;;;;14.03;9.25;;;24.80;73.90;;;;;;1874739;75;21664;-71
2022/12/29 04:07:46;;;;;;;12.23;8.85;;;24.90;73.40;;;;;;1921427;73;21144;-71
2022/12/29 04:10:23;;;;;;;14.33;8.70;;;25.10;73.10;;;;;;1882290;73;21143;-72
2022/12/29 04:12:54;;;;;;;14.55;9.03;;;25.10;72.80;;;;;;1920184;73;21441;-72
2022/12/29 04:15:26;;;;;;;12.75;9.08;;;25.20;72.50;;;;;;1924444;73;21153;-72
2022/12/29 04:18:00;;;;;;;15.20;10.40;;;25.30;72.90;;;;;;1920436;73;21051;-71
2022/12/29 04:23:20;;;;;;;15.13;8.45;;;25.60;71.70;;;;;;1918541;73;21657;-72
2022/12/29 04:25:52;;;;;;;13.68;8.60;;;25.60;71.30;;;;;;1920082;73;21101;-72
2022/12/29 04:28:29;;;;;;;11.80;8.43;;;25.70;71.10;;;;;;1923309;73;21217;-70
2022/12/29 04:31:00;;;;;;;13.60;10.38;;;25.80;70.70;;;;;;1900844;74;21055;-72
2022/12/29 04:33:35;;;;;;;17.90;11.48;;;25.90;70.00;;;;;;1838034;76;21073;-71
2022/12/29 04:36:06;;;;;;;14.30;10.70;;;26.00;69.60;;;;;;1833224;77;21178;-71
2022/12/29 04:38:37;;;;;;;15.05;11.05;;;26.10;69.10;;;;;;1833928;76;21579;-71
2022/12/29 04:41:09;;;;;;;12.93;9.73;;;26.30;70.20;;;;;;1868914;75;21249;-71
2022/12/29 04:43:40;;;;;;;12.03;8.83;;;26.40;69.20;;;;;;1869171;75;21161;-72
2022/12/29 04:46:15;;;;;;;9.25;7.10;;;26.60;67.20;;;;;;1900748;73;21124;-72
2022/12/29 04:48:48;;;;;;;11.65;7.12;;;26.60;66.10;;;;;;1905344;73;21163;-72
2022/12/29 04:51:19;;;;;;;8.53;6.67;;;26.70;65.20;;;;;;1908376;73;21188;-72
2022/12/29 04:53:52;;;;;;;10.05;7.30;;;26.70;65.70;;;;;;1905562;73;21137;-72
2022/12/29 04:56:24;;;;;;;10.70;7.28;;;26.80;65.20;;;;;;1903836;73;21046;-72
2022/12/29 04:58:55;;;;;;;11.63;6.75;;;26.80;65.20;;;;;;1901434;75;21103;-71
2022/12/29 05:01:26;;;;;;;8.95;6.62;;;26.80;64.20;;;;;;1905707;73;21096;-71
2022/12/29 05:03:57;;;;;;;9.90;6.72;;;26.90;64.70;;;;;;1901103;73;21174;-71
2022/12/29 05:06:37;;;;;;;10.60;7.17;;;27.00;64.30;;;;;;1906298;73;21114;-71
2022/12/29 05:09:04;;;;;;;8.00;6.55;;;27.10;63.60;;;;;;1903792;73;21655;-72
2022/12/29 05:11:36;;;;;;;9.05;6.58;;;27.20;62.90;;;;;;1902445;73;21143;-71
2022/12/29 05:14:08;;;;;;;9.70;7.20;;;27.30;62.80;;;;;;1907588;73;21174;-73
2022/12/29 05:16:41;;;;;;;11.18;6.60;;;27.30;62.70;;;;;;1904984;73;21097;-73
2022/12/29 05:19:12;;;;;;;10.80;7.08;;;27.40;62.80;;;;;;1897403;75;21230;-70
2022/12/29 05:21:44;;;;;;;8.25;7.10;;;27.50;70.60;;;;;;1900988;73;21574;-72
2022/12/29 05:24:16;;;;;;;11.57;6.80;;;27.50;72.60;;;;;;1904024;73;21633;-72
2022/12/29 05:26:48;;;;;;;9.00;6.30;;;27.60;76.00;;;;;;1899193;73;21398;-73
2022/12/29 05:29:20;;;;;;;7.47;5.72;;;27.60;61.80;;;;;;1903564;74;21568;-71
2022/12/29 05:31:51;;;;;;;7.83;5.25;;;27.60;89.40;;;;;;1916393;73;21931;-73
2022/12/29 05:34:22;;;;;;;12.95;6.75;;;27.70;80.70;;;;;;1914363;73;21125;-72
2022/12/29 05:36:54;;;;;;;10.53;6.25;;;27.90;75.80;;;;;;1915297;72;21619;-71
2022/12/29 05:39:28;;;;;;;12.23;8.55;;;27.80;74.80;;;;;;1918402;73;21596;-71
2022/12/29 05:41:59;;;;;;;11.93;8.15;;;27.80;69.40;;;;;;1914471;73;21076;-73
2022/12/29 05:44:31;;;;;;;8.95;7.50;;;27.90;69.00;;;;;;1916489;74;21100;-72
2022/12/29 05:47:05;;;;;;;9.10;6.70;;;27.90;71.30;;;;;;1919223;73;21124;-71
2022/12/29 05:49:38;;;;;;;8.58;7.00;;;27.90;70.20;;;;;;1917500;74;21143;-75
2022/12/29 05:52:16;;;;;;;10.28;6.75;;;27.90;77.90;;;;;;1917764;73;21196;-71
2022/12/29 05:54:50;;;;;;;8.05;6.42;;;28.00;75.90;;;;;;1891563;75;21057;-75
2022/12/29 05:57:21;;;;;;;10.75;7.20;;;28.00;77.70;;;;;;1875889;75;21129;-72
2022/12/29 05:59:52;;;;;;;8.00;6.50;;;28.00;91.30;;;;;;1869015;76;21100;-73
2022/12/29 06:02:24;;;;;;;7.70;6.45;;;28.00;91.10;;;;;;1872903;75;21592;-72
2022/12/29 06:04:55;;;;;;;9.30;7.20;;;28.00;90.70;;;;;;1839238;76;21158;-72
2022/12/29 06:07:36;;;;;;;8.10;6.70;;;28.10;90.20;;;;;;1844425;76;21113;-72
2022/12/29 06:10:08;;;;;;;8.93;6.40;;;28.00;90.00;;;;;;1909651;74;21225;-71
2022/12/29 06:12:41;;;;;;;9.00;6.92;;;28.10;90.10;;;;;;1915130;74;21136;-78
2022/12/29 06:15:15;;;;;;;9.25;6.90;;;28.10;89.30;;;;;;1911197;73;21062;-85
2022/12/29 06:17:46;;;;;;;7.83;6.42;;;28.10;89.00;;;;;;1908805;74;21073;-86
2022/12/29 06:20:21;;;;;;;8.23;6.72;;;28.10;87.00;;;;;;1917729;74;21258;-85
2022/12/29 06:22:49;;;;;;;8.58;6.50;;;27.90;87.20;;;;;;1902480;74;21230;-85
2022/12/29 06:25:21;;;;;;;8.48;5.90;;;28.20;72.60;;;;;;1923058;73;21149;-86
2022/12/29 06:27:52;;;;;;;8.30;6.22;;;28.20;72.30;;;;;;1917691;74;21077;-86
2022/12/29 06:30:23;;;;;;;7.85;5.67;;;28.30;72.70;;;;;;1919962;73;21070;-86
2022/12/29 06:32:54;;;;;;;9.10;5.65;;;28.30;73.00;;;;;;1909541;75;21129;-87
2022/12/29 06:35:25;;;;;;;9.48;6.55;;;28.40;73.00;;;;;;1909278;73;21062;-85
2022/12/29 06:37:55;;;;;;;8.75;5.65;;;28.50;72.00;;;;;;1895917;73;21518;-85
2022/12/29 06:40:29;;;;;;;7.80;5.62;;;28.40;70.00;;;;;;1915112;73;21601;-86
2022/12/29 06:43:00;;;;;;;7.58;5.60;;;28.40;71.20;;;;;;1895186;75;21179;-87
2022/12/29 06:45:33;;;;;;;8.38;6.25;;;28.50;71.40;;;;;;1911530;75;21126;-85
2022/12/29 06:48:05;;;;;;;8.98;6.60;;;28.50;72.40;;;;;;1906449;75;21109;-87
2022/12/29 06:50:36;;;;;;;9.50;6.15;;;28.60;76.80;;;;;;1895519;74;21577;-86
2022/12/29 06:53:07;;;;;;;9.93;6.25;;;28.40;91.20;;;;;;1896092;75;21519;-86
2022/12/29 06:55:38;;;;;;;11.57;5.97;;;28.40;88.90;;;;;;1902522;75;21133;-85
2022/12/29 06:58:09;;;;;;;11.53;5.95;;;28.40;86.80;;;;;;1901529;75;21141;-87
2022/12/29 07:00:43;;;;;;;8.50;5.67;;;28.50;87.00;;;;;;1901112;74;21254;-83
2022/12/29 07:03:14;;;;;;;9.53;5.55;;;28.50;87.60;;;;;;1900477;75;21254;-86
2022/12/29 07:05:45;;;;;;;6.97;5.60;;;28.50;87.80;;;;;;1900631;75;21046;-85
2022/12/29 07:08:17;;;;;;;7.78;5.25;;;28.50;88.10;;;;;;1899732;75;21177;-85
2022/12/29 07:10:51;;;;;;;6.35;5.55;;;28.50;90.20;;;;;;1900190;75;21200;-87
2022/12/29 07:13:37;;;;;;;8.33;5.80;;;28.50;89.80;;;;;;1903132;73;21121;-86
2022/12/29 07:16:30;;;;;;;7.72;5.92;;;28.40;89.20;;;;;;1888723;75;21714;-87
2022/12/29 07:19:22;;;;;;;7.90;5.37;;;28.40;89.00;;;;;;1897912;75;21689;-86
2022/12/29 07:21:59;;;;;;;7.05;5.47;;;28.50;88.00;;;;;;1902754;73;21161;-86
2022/12/29 07:24:29;;;;;;;8.33;6.20;;;28.40;86.80;;;;;;1896584;73;21113;-74
2022/12/29 07:27:00;;;;;;;8.50;6.12;;;28.40;86.30;;;;;;1900518;73;21779;-72
2022/12/29 07:29:34;;;;;;;7.92;5.70;;;28.50;86.40;;;;;;1899944;73;21137;-73
2022/12/29 07:32:05;;;;;;;9.00;6.10;;;28.40;86.00;;;;;;1913344;73;21115;-72
2022/12/29 07:34:39;;;;;;;7.65;5.80;;;28.40;86.20;;;;;;1878314;75;21541;-73
2022/12/29 07:37:10;;;;;;;6.90;5.25;;;28.40;87.40;;;;;;1918018;73;21161;-72
2022/12/29 07:39:42;;;;;;;7.90;5.65;;;28.30;86.70;;;;;;1917673;73;21189;-72
2022/12/29 07:42:12;;;;;;;8.45;5.55;;;28.40;87.80;;;;;;1919684;73;21172;-71
2022/12/29 07:44:47;;;;;;;9.78;5.60;;;28.30;88.60;;;;;;1914253;73;21148;-73
2022/12/29 07:47:17;;;;;;;8.15;5.75;;;28.40;89.10;;;;;;1915400;73;21876;-73
2022/12/29 07:49:54;;;;;;;8.33;6.55;;;28.30;90.00;;;;;;1903778;73;21103;-72
2022/12/29 07:52:23;;;;;;;7.15;5.92;;;28.30;90.40;;;;;;1913383;73;21712;-74
2022/12/29 07:54:57;;;;;;;9.58;6.92;;;28.30;91.30;;;;;;1914314;73;21148;-72
2022/12/29 07:57:29;;;;;;;9.13;6.12;;;28.30;85.70;;;;;;1914315;73;21225;-71
2022/12/29 08:00:03;;;;;;;8.80;5.37;;;28.40;83.20;;;;;;1918432;73;21418;-71
2022/12/29 08:02:35;;;;;;;7.58;5.78;;;28.40;83.50;;;;;;1917175;73;21138;-73
2022/12/29 08:05:06;;;;;;;7.97;5.78;;;28.40;84.40;;;;;;1918067;73;21081;-72
2022/12/29 08:07:40;;;;;;;7.58;5.60;;;28.40;86.90;;;;;;1913869;73;21108;-73
2022/12/29 08:10:13;;;;;;;7.12;5.33;;;28.40;90.10;;;;;;1919878;73;21111;-73
2022/12/29 08:12:46;;;;;;;8.55;5.50;;;28.30;89.20;;;;;;1912989;73;21650;-75
2022/12/29 08:15:22;;;;;;;6.67;5.05;;;28.30;85.50;;;;;;1920092;73;21123;-72
2022/12/29 08:17:53;;;;;;;;;;;28.20;84.80;;;;;;1917315;73;21206;-73
2022/12/29 08:20:23;;;;;;;8.50;5.62;;;28.30;84.90;;;;;;1918520;73;20229;-71
2022/12/29 08:22:55;;;;;;;6.00;5.22;;;28.30;83.80;;;;;;1917681;73;21708;-73
2022/12/29 08:25:26;;;;;;;6.78;5.42;;;28.30;83.40;;;;;;1919278;73;21132;-73
2022/12/29 08:27:59;;;;;;;7.50;5.40;;;28.20;83.00;;;;;;1919594;73;21224;-72
2022/12/29 08:30:38;;;;;;;7.22;5.33;;;28.20;84.10;;;;;;1916253;73;21260;-73
2022/12/29 08:33:10;;;;;;;6.83;5.08;;;28.20;82.90;;;;;;1901670;73;21242;-73
2022/12/29 08:35:41;;;;;;;7.92;5.42;;;28.20;82.10;;;;;;1903534;73;21126;-73
2022/12/29 08:38:12;;;;;;;6.97;5.22;;;28.20;81.70;;;;;;1899835;75;21235;-87
2022/12/29 08:40:51;;;;;;;8.75;5.83;;;28.20;81.60;;;;;;1910152;73;21119;-90
2022/12/29 08:43:30;;;;;;;7.75;4.92;;;28.10;81.20;;;;;;1819880;77;21136;-89
2022/12/29 08:46:14;;;;;;;9.25;5.47;;;28.10;81.60;;;;;;1864049;75;21209;-89
2022/12/29 08:49:09;;;;;;;7.37;5.22;;;28.10;81.50;;;;;;1906612;73;21108;-89
2022/12/29 08:51:46;;;;;;;8.28;5.60;;;28.10;81.40;;;;;;1908011;73;21038;-91
2022/12/29 08:54:19;;;;;;;7.72;5.25;;;28.10;81.80;;;;;;1906767;73;21223;-88
2022/12/29 08:56:50;;;;;;;7.05;5.55;;;28.00;81.70;;;;;;1907544;73;21128;-88
2022/12/29 08:59:29;;;;;;;7.60;5.12;;;28.10;81.90;;;;;;1900431;73;21168;-90
2022/12/29 09:02:01;;;;;;;10.85;6.30;;;28.00;81.50;;;;;;1905499;73;21223;-87
2022/12/29 09:04:35;;;;;;;8.00;5.55;;;28.00;81.60;;;;;;1902160;75;21334;-88
2022/12/29 09:07:06;;;;;;;7.97;5.70;;;28.20;81.80;;;;;;1903835;75;21133;-88
2022/12/29 09:09:53;;;;;;;7.33;5.05;;;28.10;81.10;;;;;;1904318;73;21056;-87
2022/12/29 09:12:12;;;;;;;7.72;5.30;;;28.10;81.10;;;;;;1900854;73;21219;-89
2022/12/29 09:14:44;;;;;;;8.60;5.08;;;28.10;81.00;;;;;;1903779;75;21566;-87
2022/12/29 09:20:03;;;;;;;7.72;5.28;;;28.00;80.90;;;;;;1907815;73;21072;-87
2022/12/29 09:22:38;;;;;;;6.50;5.17;;;28.00;80.60;;;;;;1909855;73;21118;-86
2022/12/29 09:25:15;;;;;;;8.45;5.47;;;28.00;80.50;;;;;;1912100;74;21092;-86
2022/12/29 09:27:48;;;;;;;7.28;5.55;;;28.00;80.90;;;;;;1905906;73;21124;-86
2022/12/29 09:30:22;;;;;;;6.45;5.20;;;28.00;81.20;;;;;;1905676;73;21072;-87
2022/12/29 09:32:54;;;;;;;8.53;5.17;;;28.00;80.60;;;;;;1921064;73;21089;-88
2022/12/29 09:35:26;;;;;;;7.75;5.60;;;27.90;79.70;;;;;;1915676;73;21463;-87
2022/12/29 09:37:59;;;;;;;7.67;5.80;;;28.00;79.70;;;;;;1928957;74;21089;-87
2022/12/29 09:40:36;;;;;;;7.72;5.72;;;27.90;80.50;;;;;;1930018;74;21061;-87
2022/12/29 09:43:21;;;;;;;9.73;5.67;;;27.90;80.40;;;;;;1929489;74;21135;-89
2022/12/29 09:46:31;;;;;;;8.65;5.97;;;27.80;80.60;;;;;;1897413;74;21065;-86
2022/12/29 09:49:04;;;;;;;8.20;5.83;;;27.80;81.10;;;;;;1910253;74;21187;-86
2022/12/29 09:51:38;;;;;;;7.35;5.55;;;27.80;81.30;;;;;;1923111;74;21184;-88
2022/12/29 09:54:48;;;;;;;8.58;5.33;;;27.70;82.20;;;;;;1917202;74;21080;-87
2022/12/29 09:57:40;;;;;;;7.55;4.75;;;27.60;82.00;;;;;;1920673;73;21170;-87
2022/12/29 10:00:20;;;;;;;7.42;4.90;;;27.50;81.70;;;;;;1923407;73;21053;-88
2022/12/29 10:03:18;;;;;;;6.30;5.05;;;27.50;82.20;;;;;;1912124;74;21183;-86
2022/12/29 10:06:00;;;;;;;8.60;5.03;;;27.50;82.50;;;;;;1919453;74;21258;-86
2022/12/29 10:08:40;;;;;;;8.23;5.40;;;27.30;83.90;;;;;;1930074;74;21124;-88
2022/12/29 10:11:49;;;;;;;8.35;5.40;;;27.10;92.30;;;;;;1921303;74;21184;-88
2022/12/29 10:14:45;;;;;;;10.45;6.90;;;27.20;87.20;;;;;;1909956;73;21100;-88
2022/12/29 10:17:37;;;;;;;12.82;7.80;;;27.20;87.90;;;;;;1906643;74;21101;-88
2022/12/29 10:20:19;;;;;;;11.63;7.40;;;27.10;88.10;;;;;;1918876;73;21202;-88
2022/12/29 10:23:08;;;;;;;16.80;10.28;;;27.00;87.90;;;;;;1897787;76;21120;-89
2022/12/29 10:25:41;;;;;;;13.62;8.60;;;27.00;88.40;;;;;;1925913;73;21053;-89
2022/12/29 10:28:17;;;;;;;9.65;7.40;;;27.10;88.60;;;;;;1918736;74;21180;-88
2022/12/29 10:30:48;;;;;;;;;;;27.00;88.30;;;;;;1921812;74;21530;-89
2022/12/29 10:33:28;;;;;;;12.98;6.87;;;26.90;88.60;;;;;;1916478;74;20129;-90
2022/12/29 10:36:00;;;;;;;11.90;6.72;;;26.90;88.30;;;;;;1884868;75;21500;-89
2022/12/29 10:38:51;;;;;;;12.03;7.08;;;26.90;88.40;;;;;;1887642;75;21186;-90
2022/12/29 10:41:56;;;;;;;11.35;7.05;;;26.80;88.40;;;;;;1887516;75;21102;-88
2022/12/29 10:44:31;;;;;;;12.47;7.83;;;26.80;89.10;;;;;;1902606;75;21548;-90
2022/12/29 10:47:07;;;;;;;15.35;9.65;;;26.80;89.30;;;;;;1893930;75;21149;-92
2022/12/29 10:49:42;;;;;;;14.65;9.88;;;26.80;89.80;;;;;;1918462;73;21571;-90
2022/12/29 10:52:14;;;;;;;16.48;9.83;;;26.70;90.40;;;;;;1917454;73;21081;-90
2022/12/29 10:55:06;;;;;;;17.80;11.50;;;26.70;90.50;;;;;;1886534;75;21090;-86
2022/12/29 10:57:43;;;;;;;17.77;11.80;;;26.70;90.60;;;;;;1892942;74;21151;-88
2022/12/29 11:00:22;;;;;;;14.90;11.00;;;26.60;84.70;;;;;;1903787;75;21086;-91
2022/12/29 11:03:28;;;;;;;14.00;10.00;;;26.60;90.70;;;;;;1929631;73;21145;-90
2022/12/29 11:06:17;;;;;;;14.20;10.50;;;26.60;90.80;;;;;;1906072;75;21124;-91
2022/12/29 11:08:53;;;;;;;15.05;9.75;;;26.50;91.10;;;;;;1890595;75;21124;-92
2022/12/29 11:11:26;;;;;;;20.48;11.78;;;26.40;91.30;;;;;;1898293;75;21124;-90
2022/12/29 11:14:24;;;;;;;18.20;12.30;;;26.40;91.80;;;;;;1899091;73;21102;-91
2022/12/29 11:17:05;;;;;;;21.60;13.05;;;26.30;94.60;;;;;;1907778;73;21078;-91
2022/12/29 11:19:38;;;;;;;20.62;14.05;;;26.30;96.20;;;;;;1898819;74;21136;-89
2022/12/29 11:22:29;;;;;;;21.52;14.58;;;26.40;93.70;;;;;;1915547;73;21059;-90
2022/12/29 11:25:08;;;;;;;25.50;14.95;;;26.30;90.80;;;;;;1905265;73;21143;-89
2022/12/29 11:27:39;;;;;;;24.23;15.20;;;26.30;86.20;;;;;;1918154;75;21062;-88
2022/12/29 11:30:13;;;;;;;23.38;16.02;;;26.20;83.60;;;;;;1889448;75;21113;-89
2022/12/29 11:32:47;;;;;;;20.25;14.68;;;26.30;83.30;;;;;;1892651;74;21202;-91
2022/12/29 11:35:36;;;;;;;21.93;14.50;;;26.20;82.20;;;;;;1913838;73;21070;-91
2022/12/29 11:38:21;;;;;;;22.40;14.60;;;26.30;81.90;;;;;;1830214;77;21117;-90
2022/12/29 11:40:54;;;;;;;22.37;14.93;;;26.20;81.80;;;;;;1835751;74;21620;-89
2022/12/29 11:43:39;;;;;;;23.10;15.40;;;26.20;82.80;;;;;;1917165;74;21144;-89
2022/12/29 11:46:15;;;;;;;22.82;14.90;;;26.20;82.60;;;;;;1911215;74;21109;-88
2022/12/29 11:48:48;;;;;;;26.15;16.37;;;26.20;83.20;;;;;;1926049;73;21135;-89
2022/12/29 11:51:24;;;;;;;24.45;16.23;;;26.20;83.40;;;;;;1922384;73;21077;-89
2022/12/29 11:53:58;;;;;;;26.30;15.25;;;26.20;83.90;;;;;;1896517;74;21194;-89
2022/12/29 11:56:44;;;;;;;22.07;15.15;;;26.20;84.20;;;;;;1910724;74;21050;-90
2022/12/29 11:59:25;;;;;;;20.45;14.60;;;26.10;85.10;;;;;;1897730;74;21510;-89
2022/12/29 12:01:57;;;;;;;19.17;13.95;;;26.10;84.80;;;;;;1899775;74;21061;-88
2022/12/29 12:04:31;;;;;;;20.97;14.07;;;26.10;85.30;;;;;;1898375;74;21104;-90
2022/12/29 12:07:10;;;;;;;21.37;13.13;;;26.00;85.80;;;;;;1903291;74;21046;-89
2022/12/29 12:09:55;;;;;;;18.87;13.60;;;26.00;86.70;;;;;;1915178;74;21150;-90
2022/12/29 12:12:42;;;;;;;17.62;12.63;;;26.00;86.10;;;;;;1911306;73;21171;-90
2022/12/29 12:15:15;;;;;;;17.12;11.40;;;26.10;85.90;;;;;;1917962;74;21123;-88
2022/12/29 12:18:08;;;;;;;17.80;12.35;;;26.00;85.90;;;;;;1908340;74;21104;-89
2022/12/29 12:20:44;;;;;;;16.97;12.80;;;26.00;86.00;;;;;;1914602;73;21550;-88
2022/12/29 12:23:28;;;;;;;17.30;12.10;;;26.00;85.90;;;;;;1911274;73;21184;-90
2022/12/29 12:26:20;;;;;;;18.20;12.73;;;26.10;85.40;;;;;;1909388;74;21124;-90
2022/12/29 12:29:05;;;;;;;23.65;14.10;;;26.00;85.50;;;;;;1884993;74;21105;-90
2022/12/29 12:31:51;;;;;;;22.37;16.05;;;26.00;85.20;;;;;;1910273;74;21113;-91
2022/12/29 12:34:26;;;;;;;20.37;14.68;;;25.90;85.50;;;;;;1922589;73;21132;-88
2022/12/29 12:37:14;;;;;;;19.92;13.50;;;25.50;85.10;;;;;;1924252;73;21104;-91
2022/12/29 12:40:12;;;;;;;21.68;13.15;;;26.00;85.90;;;;;;1925420;74;21231;-91
2022/12/29 12:43:21;;;;;;;19.60;12.35;;;25.90;85.40;;;;;;1932948;73;21064;-93
2022/12/29 12:46:26;;;;;;;17.00;12.25;;;25.90;85.60;;;;;;1925651;73;21077;-89
2022/12/29 12:49:25;;;;;;;17.60;11.22;;;26.00;85.10;;;;;;1935170;74;21154;-89
2022/12/29 12:52:42;;;;;;;18.90;11.00;;;25.90;85.20;;;;;;1934745;72;21125;-87
2022/12/29 12:55:56;;;;;;;14.78;10.55;;;25.90;84.90;;;;;;1939878;73;21065;-85
2022/12/29 12:58:29;;;;;;;18.07;10.53;;;25.90;84.40;;;;;;1939533;74;21140;-88
2022/12/29 13:01:12;;;;;;;17.12;10.43;;;25.80;83.90;;;;;;1934935;73;21105;-88
2022/12/29 13:04:09;;;;;;;18.23;12.58;;;25.80;83.70;;;;;;1924653;74;21221;-86
2022/12/29 13:07:03;;;;;;;18.90;11.53;;;25.80;84.70;;;;;;1922733;74;21227;-87
2022/12/29 13:09:36;;;;;;;17.17;11.63;;;25.80;84.40;;;;;;1936265;74;21046;-86
2022/12/29 13:12:17;;;;;;;18.75;11.50;;;25.80;84.40;;;;;;1892674;74;21066;-86
2022/12/29 13:15:03;;;;;;;16.40;10.78;;;25.70;84.50;;;;;;1936166;73;21181;-87
2022/12/29 13:17:38;;;;;;;18.17;10.15;;;25.70;83.90;;;;;;1919688;74;21166;-86
2022/12/29 13:20:29;;;;;;;15.63;10.13;;;25.60;78.80;;;;;;1922737;73;21074;-86
2022/12/29 13:23:23;;;;;;;12.82;9.85;;;25.60;79.70;;;;;;1872114;74;21123;-87
2022/12/29 13:26:16;;;;;;;13.75;10.23;;;25.60;84.30;;;;;;1939644;72;21253;-87
2022/12/29 13:28:59;;;;;;;16.60;9.65;;;25.60;84.80;;;;;;1935718;73;21406;-88
2022/12/29 13:31:38;;;;;;;14.98;9.65;;;25.60;85.00;;;;;;1909648;74;21079;-86
2022/12/29 13:34:23;;;;;;;13.93;9.90;;;25.60;84.40;;;;;;1870799;76;21088;-87
2022/12/29 13:37:02;;;;;;;16.80;10.38;;;25.60;75.50;;;;;;1883813;76;21154;-86
2022/12/29 13:39:35;;;;;;;13.50;9.93;;;25.80;84.00;;;;;;1884619;76;21067;-86
2022/12/29 13:42:07;;;;;;;15.53;10.18;;;25.50;84.20;;;;;;1904832;74;21114;-86
2022/12/29 13:44:56;;;;;;;18.85;9.93;;;25.50;84.30;;;;;;1926778;73;21070;-86
2022/12/29 13:47:35;;;;;;;12.98;9.53;;;25.50;76.30;;;;;;1915751;73;21057;-85
2022/12/29 13:50:18;;;;;;;13.50;9.45;;;25.60;84.30;;;;;;1926423;72;21084;-86
2022/12/29 13:53:11;;;;;;;12.28;9.40;;;25.40;83.50;;;;;;1924983;73;21213;-86
2022/12/29 13:55:58;;;;;;;15.20;9.18;;;25.50;84.60;;;;;;1944719;73;21109;-87
2022/12/29 13:58:34;;;;;;;12.47;9.43;;;25.50;83.70;;;;;;1963674;72;21069;-86
2022/12/29 14:01:17;;;;;;;17.55;9.53;;;25.40;84.80;;;;;;1950302;72;21028;-87
2022/12/29 14:03:57;;;;;;;14.10;9.33;;;25.50;76.40;;;;;;1912822;73;21073;-88
2022/12/29 14:06:30;;;;;;;11.43;9.13;;;25.40;85.00;;;;;;1910610;74;21070;-87
2022/12/29 14:09:04;;;;;;;12.95;9.13;;;25.40;75.00;;;;;;1906135;74;21217;-87